sensor_id;sensor_type;location;lat;lon;timestamp;temperature;humidity
11497;DHT22;5805;51.542;7.230;2022-12-18T00:00:57;-3.40;99.90
11497;DHT22;5805;51.542;7.230;2022-12-18T00:03:25;-3.40;99.90
11497;DHT22;5805;51.542;7.230;2022-12-18T00:05:51;-3.50;99.90
11497;DHT22;5805;51.542;7.230;2022-12-18T00:08:18;-3.50;99.90
11497;DHT22;5805;51.542;7.230;2022-12-18T00:10:44;-3.60;99.90
11497;DHT22;5805;51.542;7.230;2022-12-18T00:13:10;-3.50;99.90
11497;DHT22;5805;51.542;7.230;2022-12-18T00:15:36;-3.50;99.90
11497;DHT22;5805;51.542;7.230;2022-12-18T00:18:02;-3.50;99.90
11497;DHT22;5805;51.542;7.230;2022-12-18T00:20:30;-3.50;99.90
11497;DHT22;5805;51.542;7.230;2022-12-18T00:22:56;-3.60;99.90
11497;DHT22;5805;51.542;7.230;2022-12-18T00:25:21;-3.60;99.90
11497;DHT22;5805;51.542;7.230;2022-12-18T00:27:47;-3.60;99.90
11497;DHT22;5805;51.542;7.230;2022-12-18T00:30:13;-3.50;99.90
11497;DHT22;5805;51.542;7.230;2022-12-18T00:32:39;-3.60;99.90
11497;DHT22;5805;51.542;7.230;2022-12-18T00:35:05;-3.80;99.90
11497;DHT22;5805;51.542;7.230;2022-12-18T00:37:34;-3.90;99.90
11497;DHT22;5805;51.542;7.230;2022-12-18T00:40:00;-3.90;99.90
11497;DHT22;5805;51.542;7.230;2022-12-18T00:42:26;-3.80;99.90
11497;DHT22;5805;51.542;7.230;2022-12-18T00:44:52;-3.60;99.90
11497;DHT22;5805;51.542;7.230;2022-12-18T00:47:17;-3.70;99.90
11497;DHT22;5805;51.542;7.230;2022-12-18T00:49:43;-3.70;99.90
11497;DHT22;5805;51.542;7.230;2022-12-18T00:52:08;-3.70;99.90
11497;DHT22;5805;51.542;7.230;2022-12-18T00:54:35;-3.70;99.90
11497;DHT22;5805;51.542;7.230;2022-12-18T00:57:01;-3.90;99.90
11497;DHT22;5805;51.542;7.230;2022-12-18T00:59:27;-3.90;99.90
11497;DHT22;5805;51.542;7.230;2022-12-18T01:01:52;-3.80;99.90
11497;DHT22;5805;51.542;7.230;2022-12-18T01:04:18;-3.80;99.90
11497;DHT22;5805;51.542;7.230;2022-12-18T01:06:44;-3.80;99.90
11497;DHT22;5805;51.542;7.230;2022-12-18T01:09:09;-3.90;99.90
11497;DHT22;5805;51.542;7.230;2022-12-18T01:11:36;-3.90;99.90
11497;DHT22;5805;51.542;7.230;2022-12-18T01:14:02;-3.90;99.90
11497;DHT22;5805;51.542;7.230;2022-12-18T01:16:28;-3.90;99.90
11497;DHT22;5805;51.542;7.230;2022-12-18T01:18:54;-3.90;99.90
11497;DHT22;5805;51.542;7.230;2022-12-18T01:21:20;-3.90;99.90
11497;DHT22;5805;51.542;7.230;2022-12-18T01:23:46;-3.80;99.90
11497;DHT22;5805;51.542;7.230;2022-12-18T01:26:16;-3.80;99.90
11497;DHT22;5805;51.542;7.230;2022-12-18T01:28:43;-3.90;99.90
11497;DHT22;5805;51.542;7.230;2022-12-18T01:31:14;-3.90;99.90
11497;DHT22;5805;51.542;7.230;2022-12-18T01:33:40;-4.00;99.90
11497;DHT22;5805;51.542;7.230;2022-12-18T01:36:06;-4.00;99.90
11497;DHT22;5805;51.542;7.230;2022-12-18T01:38:32;-4.10;99.90
11497;DHT22;5805;51.542;7.230;2022-12-18T01:40:58;-4.10;99.90
11497;DHT22;5805;51.542;7.230;2022-12-18T01:43:48;-4.00;99.90
11497;DHT22;5805;51.542;7.230;2022-12-18T01:46:14;-3.90;99.90
11497;DHT22;5805;51.542;7.230;2022-12-18T01:48:41;-3.90;99.90
11497;DHT22;5805;51.542;7.230;2022-12-18T01:51:09;-3.80;99.90
11497;DHT22;5805;51.542;7.230;2022-12-18T01:53:36;-3.80;99.90
11497;DHT22;5805;51.542;7.230;2022-12-18T01:56:02;-3.80;99.90
11497;DHT22;5805;51.542;7.230;2022-12-18T01:58:32;-3.80;99.90
11497;DHT22;5805;51.542;7.230;2022-12-18T02:01:02;-3.90;99.90
11497;DHT22;5805;51.542;7.230;2022-12-18T02:03:27;-3.90;99.90
11497;DHT22;5805;51.542;7.230;2022-12-18T02:05:59;-3.80;99.90
11497;DHT22;5805;51.542;7.230;2022-12-18T02:08:30;-3.90;99.90
11497;DHT22;5805;51.542;7.230;2022-12-18T02:11:03;-4.00;99.90
11497;DHT22;5805;51.542;7.230;2022-12-18T02:13:35;-4.00;99.90
11497;DHT22;5805;51.542;7.230;2022-12-18T02:16:08;-4.00;99.90
11497;DHT22;5805;51.542;7.230;2022-12-18T02:18:40;-4.00;99.90
11497;DHT22;5805;51.542;7.230;2022-12-18T02:21:15;-4.10;99.90
11497;DHT22;5805;51.542;7.230;2022-12-18T02:23:49;-4.10;99.90
11497;DHT22;5805;51.542;7.230;2022-12-18T02:26:26;-4.00;99.90
11497;DHT22;5805;51.542;7.230;2022-12-18T02:28:57;-4.10;99.90
11497;DHT22;5805;51.542;7.230;2022-12-18T02:31:26;-4.00;99.90
11497;DHT22;5805;51.542;7.230;2022-12-18T02:33:58;-4.00;99.90
11497;DHT22;5805;51.542;7.230;2022-12-18T02:36:26;-4.00;99.90
11497;DHT22;5805;51.542;7.230;2022-12-18T02:38:54;-4.10;99.90
11497;DHT22;5805;51.542;7.230;2022-12-18T02:41:25;-4.20;99.90
11497;DHT22;5805;51.542;7.230;2022-12-18T02:43:55;-4.20;99.90
11497;DHT22;5805;51.542;7.230;2022-12-18T02:46:28;-4.10;99.90
11497;DHT22;5805;51.542;7.230;2022-12-18T02:49:00;-4.00;99.90
11497;DHT22;5805;51.542;7.230;2022-12-18T02:51:30;-4.00;99.90
11497;DHT22;5805;51.542;7.230;2022-12-18T02:54:02;-4.00;99.90
11497;DHT22;5805;51.542;7.230;2022-12-18T02:56:36;-4.00;99.90
11497;DHT22;5805;51.542;7.230;2022-12-18T02:59:07;-3.30;99.90
11497;DHT22;5805;51.542;7.230;2022-12-18T03:01:39;-4.00;99.90
11497;DHT22;5805;51.542;7.230;2022-12-18T03:04:10;-4.10;99.90
11497;DHT22;5805;51.542;7.230;2022-12-18T03:06:41;-4.00;99.90
11497;DHT22;5805;51.542;7.230;2022-12-18T03:09:12;-4.10;99.90
11497;DHT22;5805;51.542;7.230;2022-12-18T03:11:44;-4.10;99.90
11497;DHT22;5805;51.542;7.230;2022-12-18T03:14:14;-4.10;99.90
11497;DHT22;5805;51.542;7.230;2022-12-18T03:16:41;-4.10;99.90
11497;DHT22;5805;51.542;7.230;2022-12-18T03:19:11;-4.20;99.90
11497;DHT22;5805;51.542;7.230;2022-12-18T03:21:43;-4.20;99.90
11497;DHT22;5805;51.542;7.230;2022-12-18T03:24:11;-4.20;99.90
11497;DHT22;5805;51.542;7.230;2022-12-18T03:26:38;-4.20;99.90
11497;DHT22;5805;51.542;7.230;2022-12-18T03:29:08;-4.20;99.90
11497;DHT22;5805;51.542;7.230;2022-12-18T03:31:40;-4.10;99.90
11497;DHT22;5805;51.542;7.230;2022-12-18T03:34:10;-4.20;99.90
11497;DHT22;5805;51.542;7.230;2022-12-18T03:36:36;-4.10;99.90
11497;DHT22;5805;51.542;7.230;2022-12-18T03:39:02;-4.10;99.90
11497;DHT22;5805;51.542;7.230;2022-12-18T03:41:31;-4.00;99.90
11497;DHT22;5805;51.542;7.230;2022-12-18T03:44:02;-4.00;99.90
11497;DHT22;5805;51.542;7.230;2022-12-18T03:46:38;-4.00;99.90
11497;DHT22;5805;51.542;7.230;2022-12-18T03:49:09;-4.10;99.90
11497;DHT22;5805;51.542;7.230;2022-12-18T03:51:40;-4.20;99.90
11497;DHT22;5805;51.542;7.230;2022-12-18T03:54:09;-4.20;99.90
11497;DHT22;5805;51.542;7.230;2022-12-18T03:56:39;-4.30;99.90
11497;DHT22;5805;51.542;7.230;2022-12-18T03:59:06;-4.30;99.90
11497;DHT22;5805;51.542;7.230;2022-12-18T04:01:37;-4.40;99.90
11497;DHT22;5805;51.542;7.230;2022-12-18T04:04:04;-4.30;99.90
11497;DHT22;5805;51.542;7.230;2022-12-18T04:06:35;-4.30;99.90
11497;DHT22;5805;51.542;7.230;2022-12-18T04:09:02;-4.20;99.90
11497;DHT22;5805;51.542;7.230;2022-12-18T04:11:29;-4.30;99.90
11497;DHT22;5805;51.542;7.230;2022-12-18T04:13:56;-4.20;99.90
11497;DHT22;5805;51.542;7.230;2022-12-18T04:16:21;-4.30;99.90
11497;DHT22;5805;51.542;7.230;2022-12-18T04:18:48;-4.30;99.90
11497;DHT22;5805;51.542;7.230;2022-12-18T04:21:14;-4.40;99.90
11497;DHT22;5805;51.542;7.230;2022-12-18T04:23:40;-4.50;99.90
11497;DHT22;5805;51.542;7.230;2022-12-18T04:26:05;-4.50;99.90
11497;DHT22;5805;51.542;7.230;2022-12-18T04:28:31;-4.50;99.90
11497;DHT22;5805;51.542;7.230;2022-12-18T04:30:57;-4.60;99.90
11497;DHT22;5805;51.542;7.230;2022-12-18T04:33:22;-4.70;99.90
11497;DHT22;5805;51.542;7.230;2022-12-18T04:35:49;-4.70;99.90
11497;DHT22;5805;51.542;7.230;2022-12-18T04:38:15;-4.80;99.90
11497;DHT22;5805;51.542;7.230;2022-12-18T04:40:41;-4.80;99.90
11497;DHT22;5805;51.542;7.230;2022-12-18T04:43:06;-4.90;99.90
11497;DHT22;5805;51.542;7.230;2022-12-18T04:45:32;-4.90;99.90
11497;DHT22;5805;51.542;7.230;2022-12-18T04:47:58;-4.90;99.90
11497;DHT22;5805;51.542;7.230;2022-12-18T04:50:24;-4.90;99.90
11497;DHT22;5805;51.542;7.230;2022-12-18T04:52:52;-4.90;99.90
11497;DHT22;5805;51.542;7.230;2022-12-18T04:55:17;-4.90;99.90
11497;DHT22;5805;51.542;7.230;2022-12-18T04:57:43;-4.90;99.90
11497;DHT22;5805;51.542;7.230;2022-12-18T05:00:09;-4.80;99.90
11497;DHT22;5805;51.542;7.230;2022-12-18T05:02:35;-4.60;99.90
11497;DHT22;5805;51.542;7.230;2022-12-18T05:05:01;-4.60;99.90
11497;DHT22;5805;51.542;7.230;2022-12-18T05:07:27;-4.70;99.90
11497;DHT22;5805;51.542;7.230;2022-12-18T05:09:54;-4.70;99.90
11497;DHT22;5805;51.542;7.230;2022-12-18T05:12:19;-4.70;99.90
11497;DHT22;5805;51.542;7.230;2022-12-18T05:14:45;-4.60;99.90
11497;DHT22;5805;51.542;7.230;2022-12-18T05:17:11;-4.60;99.90
11497;DHT22;5805;51.542;7.230;2022-12-18T05:19:36;-4.70;99.90
11497;DHT22;5805;51.542;7.230;2022-12-18T05:22:02;-4.60;99.90
11497;DHT22;5805;51.542;7.230;2022-12-18T05:24:28;-4.60;99.90
11497;DHT22;5805;51.542;7.230;2022-12-18T05:26:55;-4.50;99.90
11497;DHT22;5805;51.542;7.230;2022-12-18T05:29:20;-4.60;99.90
11497;DHT22;5805;51.542;7.230;2022-12-18T05:31:46;-4.50;99.90
11497;DHT22;5805;51.542;7.230;2022-12-18T05:34:12;-4.60;99.90
11497;DHT22;5805;51.542;7.230;2022-12-18T05:36:37;-4.60;99.90
11497;DHT22;5805;51.542;7.230;2022-12-18T05:39:03;-4.60;99.90
11497;DHT22;5805;51.542;7.230;2022-12-18T05:41:29;-4.50;99.90
11497;DHT22;5805;51.542;7.230;2022-12-18T05:43:56;-4.50;99.90
11497;DHT22;5805;51.542;7.230;2022-12-18T05:46:21;-4.40;99.90
11497;DHT22;5805;51.542;7.230;2022-12-18T05:48:47;-4.30;99.90
11497;DHT22;5805;51.542;7.230;2022-12-18T05:51:15;-4.30;99.90
11497;DHT22;5805;51.542;7.230;2022-12-18T05:53:42;-4.30;99.90
11497;DHT22;5805;51.542;7.230;2022-12-18T05:56:12;-4.30;99.90
11497;DHT22;5805;51.542;7.230;2022-12-18T05:58:38;-4.30;99.90
11497;DHT22;5805;51.542;7.230;2022-12-18T06:01:12;-4.40;99.90
11497;DHT22;5805;51.542;7.230;2022-12-18T06:03:38;-4.40;99.90
11497;DHT22;5805;51.542;7.230;2022-12-18T06:06:04;-4.40;99.90
11497;DHT22;5805;51.542;7.230;2022-12-18T06:08:30;-4.50;99.90
11497;DHT22;5805;51.542;7.230;2022-12-18T06:10:55;-4.60;99.90
11497;DHT22;5805;51.542;7.230;2022-12-18T06:13:22;-4.50;99.90
11497;DHT22;5805;51.542;7.230;2022-12-18T06:15:48;-4.50;99.90
11497;DHT22;5805;51.542;7.230;2022-12-18T06:18:15;-4.50;99.90
11497;DHT22;5805;51.542;7.230;2022-12-18T06:20:40;-4.60;99.90
11497;DHT22;5805;51.542;7.230;2022-12-18T06:23:06;-4.50;99.90
11497;DHT22;5805;51.542;7.230;2022-12-18T06:25:32;-4.60;99.90
11497;DHT22;5805;51.542;7.230;2022-12-18T06:27:58;-4.30;99.90
11497;DHT22;5805;51.542;7.230;2022-12-18T06:30:23;-4.60;99.90
11497;DHT22;5805;51.542;7.230;2022-12-18T06:32:49;-4.60;99.90
11497;DHT22;5805;51.542;7.230;2022-12-18T06:35:16;-4.60;99.90
11497;DHT22;5805;51.542;7.230;2022-12-18T06:37:42;-4.50;99.90
11497;DHT22;5805;51.542;7.230;2022-12-18T06:40:08;-4.50;99.90
11497;DHT22;5805;51.542;7.230;2022-12-18T06:42:34;-4.50;99.90
11497;DHT22;5805;51.542;7.230;2022-12-18T06:45:00;-4.60;99.90
11497;DHT22;5805;51.542;7.230;2022-12-18T06:47:25;-4.70;99.90
11497;DHT22;5805;51.542;7.230;2022-12-18T06:49:51;-4.60;99.90
11497;DHT22;5805;51.542;7.230;2022-12-18T06:52:18;-4.50;99.90
11497;DHT22;5805;51.542;7.230;2022-12-18T06:54:44;-4.70;99.90
11497;DHT22;5805;51.542;7.230;2022-12-18T06:57:09;-4.70;99.90
11497;DHT22;5805;51.542;7.230;2022-12-18T06:59:35;-4.60;99.90
11497;DHT22;5805;51.542;7.230;2022-12-18T07:02:01;-4.70;99.90
11497;DHT22;5805;51.542;7.230;2022-12-18T07:04:28;-4.80;99.90
11497;DHT22;5805;51.542;7.230;2022-12-18T07:06:53;-4.80;99.90
11497;DHT22;5805;51.542;7.230;2022-12-18T07:09:20;-4.70;99.90
11497;DHT22;5805;51.542;7.230;2022-12-18T07:11:46;-4.60;99.90
11497;DHT22;5805;51.542;7.230;2022-12-18T07:14:12;-4.50;99.90
11497;DHT22;5805;51.542;7.230;2022-12-18T07:16:37;-4.50;99.90
11497;DHT22;5805;51.542;7.230;2022-12-18T07:19:03;-4.60;99.90
11497;DHT22;5805;51.542;7.230;2022-12-18T07:21:29;-4.60;99.90
11497;DHT22;5805;51.542;7.230;2022-12-18T07:23:54;-4.60;99.90
11497;DHT22;5805;51.542;7.230;2022-12-18T07:26:22;-4.50;99.90
11497;DHT22;5805;51.542;7.230;2022-12-18T07:28:48;-4.50;99.90
11497;DHT22;5805;51.542;7.230;2022-12-18T07:31:16;-4.40;99.90
11497;DHT22;5805;51.542;7.230;2022-12-18T07:33:42;-4.40;99.90
11497;DHT22;5805;51.542;7.230;2022-12-18T07:36:09;-4.40;99.90
11497;DHT22;5805;51.542;7.230;2022-12-18T07:38:35;-4.30;99.90
11497;DHT22;5805;51.542;7.230;2022-12-18T07:41:01;-4.30;99.90
11497;DHT22;5805;51.542;7.230;2022-12-18T07:43:28;-4.20;99.90
11497;DHT22;5805;51.542;7.230;2022-12-18T07:45:54;-4.10;99.90
11497;DHT22;5805;51.542;7.230;2022-12-18T07:48:20;-4.10;99.90
11497;DHT22;5805;51.542;7.230;2022-12-18T07:50:45;-4.10;99.90
11497;DHT22;5805;51.542;7.230;2022-12-18T07:53:11;-4.00;99.90
11497;DHT22;5805;51.542;7.230;2022-12-18T07:55:37;-4.00;99.90
11497;DHT22;5805;51.542;7.230;2022-12-18T07:58:03;-3.90;99.90
11497;DHT22;5805;51.542;7.230;2022-12-18T08:00:30;-3.90;99.90
11497;DHT22;5805;51.542;7.230;2022-12-18T08:02:56;-3.90;99.90
11497;DHT22;5805;51.542;7.230;2022-12-18T08:05:22;-3.90;99.90
11497;DHT22;5805;51.542;7.230;2022-12-18T08:07:48;-3.90;99.90
11497;DHT22;5805;51.542;7.230;2022-12-18T08:10:14;-3.80;99.90
11497;DHT22;5805;51.542;7.230;2022-12-18T08:12:39;-3.50;99.90
11497;DHT22;5805;51.542;7.230;2022-12-18T08:15:06;-3.70;99.90
11497;DHT22;5805;51.542;7.230;2022-12-18T08:17:33;-3.70;99.90
11497;DHT22;5805;51.542;7.230;2022-12-18T08:19:59;-3.70;99.90
11497;DHT22;5805;51.542;7.230;2022-12-18T08:22:25;-3.60;99.90
11497;DHT22;5805;51.542;7.230;2022-12-18T08:24:50;-3.60;99.90
11497;DHT22;5805;51.542;7.230;2022-12-18T08:27:16;-3.50;99.90
11497;DHT22;5805;51.542;7.230;2022-12-18T08:29:42;-3.50;99.90
11497;DHT22;5805;51.542;7.230;2022-12-18T08:32:07;-3.40;99.90
11497;DHT22;5805;51.542;7.230;2022-12-18T08:34:35;-3.30;99.90
11497;DHT22;5805;51.542;7.230;2022-12-18T08:37:00;-3.20;99.90
11497;DHT22;5805;51.542;7.230;2022-12-18T08:39:26;-3.00;99.90
11497;DHT22;5805;51.542;7.230;2022-12-18T08:41:52;-2.90;99.90
11497;DHT22;5805;51.542;7.230;2022-12-18T08:44:17;-2.90;99.90
11497;DHT22;5805;51.542;7.230;2022-12-18T08:46:43;-3.00;99.90
11497;DHT22;5805;51.542;7.230;2022-12-18T08:49:10;-2.90;99.90
11497;DHT22;5805;51.542;7.230;2022-12-18T08:51:37;-2.90;99.90
11497;DHT22;5805;51.542;7.230;2022-12-18T08:54:03;-2.80;99.90
11497;DHT22;5805;51.542;7.230;2022-12-18T08:56:29;-2.70;99.90
11497;DHT22;5805;51.542;7.230;2022-12-18T08:58:55;-2.60;99.90
11497;DHT22;5805;51.542;7.230;2022-12-18T09:01:21;-2.40;99.90
11497;DHT22;5805;51.542;7.230;2022-12-18T09:03:47;-2.40;99.90
11497;DHT22;5805;51.542;7.230;2022-12-18T09:06:14;-2.30;99.90
11497;DHT22;5805;51.542;7.230;2022-12-18T09:08:41;-2.20;99.90
11497;DHT22;5805;51.542;7.230;2022-12-18T09:11:12;-2.10;99.90
11497;DHT22;5805;51.542;7.230;2022-12-18T09:13:38;-2.10;99.90
11497;DHT22;5805;51.542;7.230;2022-12-18T09:16:04;-1.90;99.90
11497;DHT22;5805;51.542;7.230;2022-12-18T09:18:30;0.40;99.90
11497;DHT22;5805;51.542;7.230;2022-12-18T09:20:56;-1.70;99.90
11497;DHT22;5805;51.542;7.230;2022-12-18T09:23:21;-1.60;99.90
11497;DHT22;5805;51.542;7.230;2022-12-18T09:25:48;-1.40;99.90
11497;DHT22;5805;51.542;7.230;2022-12-18T09:28:15;-1.30;99.90
11497;DHT22;5805;51.542;7.230;2022-12-18T09:30:43;-1.20;99.90
11497;DHT22;5805;51.542;7.230;2022-12-18T09:33:09;-1.20;99.90
11497;DHT22;5805;51.542;7.230;2022-12-18T09:35:36;-1.20;99.90
11497;DHT22;5805;51.542;7.230;2022-12-18T09:38:01;-1.20;99.90
11497;DHT22;5805;51.542;7.230;2022-12-18T09:40:34;-1.10;99.90
11497;DHT22;5805;51.542;7.230;2022-12-18T09:43:04;-1.00;99.90
11497;DHT22;5805;51.542;7.230;2022-12-18T09:45:30;-1.00;99.90
11497;DHT22;5805;51.542;7.230;2022-12-18T09:48:00;-0.90;99.90
11497;DHT22;5805;51.542;7.230;2022-12-18T09:50:29;-0.90;99.90
11497;DHT22;5805;51.542;7.230;2022-12-18T09:52:59;-0.90;99.90
11497;DHT22;5805;51.542;7.230;2022-12-18T09:55:28;-0.80;99.90
11497;DHT22;5805;51.542;7.230;2022-12-18T09:57:57;-0.80;99.90
11497;DHT22;5805;51.542;7.230;2022-12-18T10:00:27;-0.70;99.90
11497;DHT22;5805;51.542;7.230;2022-12-18T10:02:59;-0.70;99.90
11497;DHT22;5805;51.542;7.230;2022-12-18T10:05:33;-0.60;99.90
11497;DHT22;5805;51.542;7.230;2022-12-18T10:08:05;-0.50;99.90
11497;DHT22;5805;51.542;7.230;2022-12-18T10:10:39;-0.40;99.90
11497;DHT22;5805;51.542;7.230;2022-12-18T10:13:15;-0.30;99.90
11497;DHT22;5805;51.542;7.230;2022-12-18T10:16:03;-0.20;99.90
11497;DHT22;5805;51.542;7.230;2022-12-18T10:18:44;-0.20;99.90
11497;DHT22;5805;51.542;7.230;2022-12-18T10:21:18;0.00;99.90
11497;DHT22;5805;51.542;7.230;2022-12-18T10:23:51;0.10;99.90
11497;DHT22;5805;51.542;7.230;2022-12-18T10:26:18;0.20;99.90
11497;DHT22;5805;51.542;7.230;2022-12-18T10:28:44;0.20;99.90
11497;DHT22;5805;51.542;7.230;2022-12-18T10:31:16;0.30;99.90
11497;DHT22;5805;51.542;7.230;2022-12-18T10:33:41;0.40;99.90
11497;DHT22;5805;51.542;7.230;2022-12-18T10:36:08;0.40;99.90
11497;DHT22;5805;51.542;7.230;2022-12-18T10:38:33;0.50;99.90
11497;DHT22;5805;51.542;7.230;2022-12-18T10:41:01;0.50;99.90
11497;DHT22;5805;51.542;7.230;2022-12-18T10:43:29;0.50;99.90
11497;DHT22;5805;51.542;7.230;2022-12-18T10:46:14;0.60;99.90
11497;DHT22;5805;51.542;7.230;2022-12-18T10:48:49;0.70;99.90
11497;DHT22;5805;51.542;7.230;2022-12-18T10:51:20;0.90;99.90
11497;DHT22;5805;51.542;7.230;2022-12-18T10:53:52;1.00;99.90
11497;DHT22;5805;51.542;7.230;2022-12-18T10:56:20;1.00;99.90
11497;DHT22;5805;51.542;7.230;2022-12-18T10:58:56;1.00;99.90
11497;DHT22;5805;51.542;7.230;2022-12-18T11:01:24;1.10;99.90
11497;DHT22;5805;51.542;7.230;2022-12-18T11:04:01;1.30;99.90
11497;DHT22;5805;51.542;7.230;2022-12-18T11:06:27;1.50;99.90
11497;DHT22;5805;51.542;7.230;2022-12-18T11:08:59;1.60;99.90
11497;DHT22;5805;51.542;7.230;2022-12-18T11:11:25;2.20;99.90
11497;DHT22;5805;51.542;7.230;2022-12-18T11:14:03;1.70;99.90
11497;DHT22;5805;51.542;7.230;2022-12-18T11:16:34;1.70;99.90
11497;DHT22;5805;51.542;7.230;2022-12-18T11:19:20;1.60;99.90
11497;DHT22;5805;51.542;7.230;2022-12-18T11:21:47;1.60;99.90
11497;DHT22;5805;51.542;7.230;2022-12-18T11:24:20;1.60;99.90
11497;DHT22;5805;51.542;7.230;2022-12-18T11:26:47;2.20;99.90
11497;DHT22;5805;51.542;7.230;2022-12-18T11:29:17;1.70;99.90
11497;DHT22;5805;51.542;7.230;2022-12-18T11:31:44;1.70;99.90
11497;DHT22;5805;51.542;7.230;2022-12-18T11:34:12;1.80;99.90
11497;DHT22;5805;51.542;7.230;2022-12-18T11:36:42;1.80;99.90
11497;DHT22;5805;51.542;7.230;2022-12-18T11:39:13;1.80;99.90
11497;DHT22;5805;51.542;7.230;2022-12-18T11:41:47;1.90;99.90
11497;DHT22;5805;51.542;7.230;2022-12-18T11:44:18;1.90;99.90
11497;DHT22;5805;51.542;7.230;2022-12-18T11:46:53;2.00;99.90
11497;DHT22;5805;51.542;7.230;2022-12-18T11:49:22;2.00;99.90
11497;DHT22;5805;51.542;7.230;2022-12-18T11:51:54;2.10;99.90
11497;DHT22;5805;51.542;7.230;2022-12-18T11:54:21;2.10;99.90
11497;DHT22;5805;51.542;7.230;2022-12-18T11:56:51;2.20;99.90
11497;DHT22;5805;51.542;7.230;2022-12-18T11:59:28;2.20;99.90
11497;DHT22;5805;51.542;7.230;2022-12-18T12:02:04;2.20;99.90
11497;DHT22;5805;51.542;7.230;2022-12-18T12:04:48;2.10;99.90
11497;DHT22;5805;51.542;7.230;2022-12-18T12:07:33;2.10;99.90
11497;DHT22;5805;51.542;7.230;2022-12-18T12:10:07;2.60;99.90
11497;DHT22;5805;51.542;7.230;2022-12-18T12:12:43;2.20;99.90
11497;DHT22;5805;51.542;7.230;2022-12-18T12:15:20;2.20;99.90
11497;DHT22;5805;51.542;7.230;2022-12-18T12:17:55;2.20;99.90
11497;DHT22;5805;51.542;7.230;2022-12-18T12:20:30;0.80;99.90
11497;DHT22;5805;51.542;7.230;2022-12-18T12:23:02;2.20;99.90
11497;DHT22;5805;51.542;7.230;2022-12-18T12:25:39;2.40;99.90
11497;DHT22;5805;51.542;7.230;2022-12-18T12:28:15;2.30;99.90
11497;DHT22;5805;51.542;7.230;2022-12-18T12:30:52;2.90;99.90
11497;DHT22;5805;51.542;7.230;2022-12-18T12:33:29;2.40;99.90
11497;DHT22;5805;51.542;7.230;2022-12-18T12:36:06;2.40;99.90
11497;DHT22;5805;51.542;7.230;2022-12-18T12:38:36;2.50;99.90
11497;DHT22;5805;51.542;7.230;2022-12-18T12:41:08;2.40;99.90
11497;DHT22;5805;51.542;7.230;2022-12-18T12:43:38;2.50;99.90
11497;DHT22;5805;51.542;7.230;2022-12-18T12:46:08;2.60;99.90
11497;DHT22;5805;51.542;7.230;2022-12-18T12:48:40;2.60;99.90
11497;DHT22;5805;51.542;7.230;2022-12-18T12:51:12;2.60;99.90
11497;DHT22;5805;51.542;7.230;2022-12-18T12:53:39;3.10;99.90
11497;DHT22;5805;51.542;7.230;2022-12-18T12:56:06;3.00;99.90
11497;DHT22;5805;51.542;7.230;2022-12-18T12:58:38;4.20;99.90
11497;DHT22;5805;51.542;7.230;2022-12-18T13:01:12;2.70;99.90
11497;DHT22;5805;51.542;7.230;2022-12-18T13:03:52;2.70;99.90
11497;DHT22;5805;51.542;7.230;2022-12-18T13:06:28;2.70;99.90
11497;DHT22;5805;51.542;7.230;2022-12-18T13:08:59;2.70;99.90
11497;DHT22;5805;51.542;7.230;2022-12-18T13:11:37;2.70;99.90
11497;DHT22;5805;51.542;7.230;2022-12-18T13:14:03;2.80;99.90
11497;DHT22;5805;51.542;7.230;2022-12-18T13:16:28;2.80;99.90
11497;DHT22;5805;51.542;7.230;2022-12-18T13:18:57;2.80;99.90
11497;DHT22;5805;51.542;7.230;2022-12-18T13:21:25;2.90;99.90
11497;DHT22;5805;51.542;7.230;2022-12-18T13:23:53;2.90;99.90
11497;DHT22;5805;51.542;7.230;2022-12-18T13:26:33;2.90;99.90
11497;DHT22;5805;51.542;7.230;2022-12-18T13:28:59;2.90;99.90
11497;DHT22;5805;51.542;7.230;2022-12-18T13:31:57;2.80;99.90
11497;DHT22;5805;51.542;7.230;2022-12-18T13:34:26;2.90;99.90
11497;DHT22;5805;51.542;7.230;2022-12-18T13:36:53;3.30;99.90
11497;DHT22;5805;51.542;7.230;2022-12-18T13:39:31;2.80;99.90
11497;DHT22;5805;51.542;7.230;2022-12-18T13:44:56;2.80;99.90
11497;DHT22;5805;51.542;7.230;2022-12-18T13:47:27;3.60;99.90
11497;DHT22;5805;51.542;7.230;2022-12-18T13:49:55;2.80;99.90
11497;DHT22;5805;51.542;7.230;2022-12-18T13:52:24;2.90;99.90
11497;DHT22;5805;51.542;7.230;2022-12-18T13:54:52;2.70;99.90
11497;DHT22;5805;51.542;7.230;2022-12-18T13:57:29;2.70;99.90
11497;DHT22;5805;51.542;7.230;2022-12-18T13:59:55;2.70;99.90
11497;DHT22;5805;51.542;7.230;2022-12-18T14:02:22;2.70;99.90
11497;DHT22;5805;51.542;7.230;2022-12-18T14:04:49;2.70;99.90
11497;DHT22;5805;51.542;7.230;2022-12-18T14:07:18;2.70;99.90
11497;DHT22;5805;51.542;7.230;2022-12-18T14:09:46;2.70;99.90
11497;DHT22;5805;51.542;7.230;2022-12-18T14:12:16;2.70;99.90
11497;DHT22;5805;51.542;7.230;2022-12-18T14:14:44;2.70;99.90
11497;DHT22;5805;51.542;7.230;2022-12-18T14:17:11;2.70;99.90
11497;DHT22;5805;51.542;7.230;2022-12-18T14:19:40;2.60;99.90
11497;DHT22;5805;51.542;7.230;2022-12-18T14:22:13;2.60;99.90
11497;DHT22;5805;51.542;7.230;2022-12-18T14:24:41;2.60;99.90
11497;DHT22;5805;51.542;7.230;2022-12-18T14:27:18;2.60;99.90
11497;DHT22;5805;51.542;7.230;2022-12-18T14:29:44;2.70;99.90
11497;DHT22;5805;51.542;7.230;2022-12-18T14:32:12;3.80;99.90
11497;DHT22;5805;51.542;7.230;2022-12-18T14:34:38;2.70;99.90
11497;DHT22;5805;51.542;7.230;2022-12-18T14:37:04;2.70;99.90
11497;DHT22;5805;51.542;7.230;2022-12-18T14:39:29;2.70;99.90
11497;DHT22;5805;51.542;7.230;2022-12-18T14:41:56;2.80;99.90
11497;DHT22;5805;51.542;7.230;2022-12-18T14:44:22;3.10;99.90
11497;DHT22;5805;51.542;7.230;2022-12-18T14:46:49;2.60;99.90
11497;DHT22;5805;51.542;7.230;2022-12-18T14:49:21;2.50;99.90
11497;DHT22;5805;51.542;7.230;2022-12-18T14:51:48;2.40;99.90
11497;DHT22;5805;51.542;7.230;2022-12-18T14:54:17;2.40;99.90
11497;DHT22;5805;51.542;7.230;2022-12-18T14:56:46;2.40;99.90
11497;DHT22;5805;51.542;7.230;2022-12-18T14:59:15;2.40;99.90
11497;DHT22;5805;51.542;7.230;2022-12-18T15:01:47;2.40;99.90
11497;DHT22;5805;51.542;7.230;2022-12-18T15:04:25;2.40;99.90
11497;DHT22;5805;51.542;7.230;2022-12-18T15:07:04;3.20;99.90
11497;DHT22;5805;51.542;7.230;2022-12-18T15:09:30;2.50;99.90
11497;DHT22;5805;51.542;7.230;2022-12-18T15:11:57;2.60;99.90
11497;DHT22;5805;51.542;7.230;2022-12-18T15:14:38;2.60;99.90
11497;DHT22;5805;51.542;7.230;2022-12-18T15:17:06;2.50;99.90
11497;DHT22;5805;51.542;7.230;2022-12-18T15:19:40;2.50;99.90
11497;DHT22;5805;51.542;7.230;2022-12-18T15:22:20;2.50;99.90
11497;DHT22;5805;51.542;7.230;2022-12-18T15:24:46;2.50;99.90
11497;DHT22;5805;51.542;7.230;2022-12-18T15:27:25;2.90;99.90
11497;DHT22;5805;51.542;7.230;2022-12-18T15:30:18;2.50;99.90
11497;DHT22;5805;51.542;7.230;2022-12-18T15:32:44;2.60;99.90
11497;DHT22;5805;51.542;7.230;2022-12-18T15:35:14;2.60;99.90
11497;DHT22;5805;51.542;7.230;2022-12-18T15:37:40;2.60;99.90
11497;DHT22;5805;51.542;7.230;2022-12-18T15:40:08;2.70;99.90
11497;DHT22;5805;51.542;7.230;2022-12-18T15:42:36;2.90;99.90
11497;DHT22;5805;51.542;7.230;2022-12-18T15:45:03;2.90;99.90
11497;DHT22;5805;51.542;7.230;2022-12-18T15:47:30;3.00;99.90
11497;DHT22;5805;51.542;7.230;2022-12-18T15:49:55;3.10;99.90
11497;DHT22;5805;51.542;7.230;2022-12-18T15:52:21;3.10;99.90
11497;DHT22;5805;51.542;7.230;2022-12-18T15:54:46;3.50;99.90
11497;DHT22;5805;51.542;7.230;2022-12-18T15:57:12;3.20;99.90
11497;DHT22;5805;51.542;7.230;2022-12-18T15:59:38;4.40;99.90
11497;DHT22;5805;51.542;7.230;2022-12-18T16:02:14;3.30;99.90
11497;DHT22;5805;51.542;7.230;2022-12-18T16:04:42;3.30;98.30